Time;durP1;ratioP1;P1;durP2;ratioP2;P2;SDS_P1;SDS_P2;PMS_P1;PMS_P2;Temp;Humidity;BMP_temperature;BMP_pressure;BME280_temperature;BME280_humidity;BME280_pressure;Samples;Min_cycle;Max_cycle;Signal;HPM_P1;HPM_P2
2023/08/02 00:01:10;;;;;;;11.43;10.93;;;;;;;;;;5092056;28;20040;-61
2023/08/02 00:03:35;;;;;;;11.30;10.80;;;;;;;;;;5094471;28;20080;-60
2023/08/02 00:06:01;;;;;;;11.27;10.77;;;;;;;;;;5090424;28;20024;-60
2023/08/02 00:08:26;;;;;;;11.60;11.10;;;;;;;;;;5089997;28;20048;-60
2023/08/02 00:10:52;;;;;;;11.50;11.00;;;;;;;;;;5084042;28;20107;-61
2023/08/02 00:13:17;;;;;;;11.50;11.00;;;;;;;;;;5086370;28;20031;-61
2023/08/02 00:15:43;;;;;;;11.45;10.95;;;;;;;;;;5085753;28;20148;-62
2023/08/02 00:18:08;;;;;;;12.70;12.10;;;;;;;;;;5085020;28;20144;-61
2023/08/02 00:20:36;;;;;;;11.70;11.20;;;;;;;;;;5087944;28;20035;-62
2023/08/02 00:23:01;;;;;;;11.57;11.07;;;;;;;;;;5087341;28;20394;-60
2023/08/02 00:25:26;;;;;;;11.73;11.23;;;;;;;;;;5093310;28;20011;-60
2023/08/02 00:27:51;;;;;;;11.65;11.15;;;;;;;;;;5084523;28;20027;-61
2023/08/02 00:30:17;;;;;;;11.73;11.23;;;;;;;;;;5092723;28;20396;-61
2023/08/02 00:32:43;;;;;;;11.32;10.82;;;;;;;;;;5090780;28;20363;-61
2023/08/02 00:35:08;;;;;;;11.20;10.70;;;;;;;;;;5085854;28;20024;-61
2023/08/02 00:37:33;;;;;;;11.55;11.05;;;;;;;;;;5086480;28;20035;-61
2023/08/02 00:39:58;;;;;;;11.55;11.05;;;;;;;;;;5084535;28;20031;-61
2023/08/02 00:42:24;;;;;;;11.70;11.20;;;;;;;;;;5087563;28;20360;-61
2023/08/02 00:44:49;;;;;;;11.48;10.98;;;;;;;;;;5095108;28;20036;-61
2023/08/02 00:47:15;;;;;;;11.75;11.25;;;;;;;;;;5091718;28;20020;-61
2023/08/02 00:49:41;;;;;;;12.10;11.50;;;;;;;;;;5085112;28;20108;-60
2023/08/02 00:52:06;;;;;;;11.30;10.80;;;;;;;;;;5088528;28;20165;-60
2023/08/02 00:54:32;;;;;;;11.70;11.20;;;;;;;;;;5091218;28;20068;-60
2023/08/02 00:56:57;;;;;;;11.50;11.00;;;;;;;;;;5088326;28;20032;-61
2023/08/02 00:59:22;;;;;;;11.10;10.60;;;;;;;;;;5094115;28;20025;-60
2023/08/02 01:01:48;;;;;;;11.20;10.70;;;;;;;;;;5088604;28;20470;-60
2023/08/02 01:04:15;;;;;;;11.63;11.13;;;;;;;;;;5088593;28;20021;-61
2023/08/02 01:07:02;;;;;;;12.00;11.40;;;;;;;;;;5089993;28;20142;-61
2023/08/02 01:09:29;;;;;;;11.27;10.77;;;;;;;;;;5098584;28;20023;-61
2023/08/02 01:12:01;;;;;;;12.10;11.50;;;;;;;;;;5091100;28;20047;-61
2023/08/02 01:14:27;;;;;;;11.55;11.05;;;;;;;;;;5092412;28;20036;-61
2023/08/02 01:16:53;;;;;;;11.15;10.65;;;;;;;;;;5094712;28;20030;-60
2023/08/02 01:19:22;;;;;;;11.50;11.00;;;;;;;;;;5097744;28;20035;-60
2023/08/02 01:21:47;;;;;;;11.98;11.38;;;;;;;;;;5087850;28;20108;-59
2023/08/02 01:24:13;;;;;;;12.10;11.50;;;;;;;;;;5085953;28;20110;-61
2023/08/02 01:26:41;;;;;;;11.60;11.10;;;;;;;;;;5088858;28;20082;-61
2023/08/02 01:29:07;;;;;;;11.68;11.18;;;;;;;;;;5090812;28;20526;-61
2023/08/02 01:31:34;;;;;;;11.57;11.07;;;;;;;;;;5091008;28;20036;-61
2023/08/02 01:34:00;;;;;;;11.63;11.13;;;;;;;;;;5092047;28;20017;-60
2023/08/02 01:36:25;;;;;;;12.32;11.73;;;;;;;;;;5090580;28;20017;-61
2023/08/02 01:38:51;;;;;;;12.00;11.40;;;;;;;;;;5092368;28;20020;-60
2023/08/02 01:41:16;;;;;;;12.35;11.75;;;;;;;;;;5098418;28;20372;-61
2023/08/02 01:43:41;;;;;;;11.68;11.18;;;;;;;;;;5097323;28;20033;-60
2023/08/02 01:46:07;;;;;;;11.63;11.13;;;;;;;;;;5093711;28;20020;-61
2023/08/02 01:48:32;;;;;;;11.90;11.35;;;;;;;;;;5086780;28;20012;-60
2023/08/02 01:50:57;;;;;;;11.77;11.27;;;;;;;;;;5093545;28;20035;-61
2023/08/02 01:53:23;;;;;;;11.50;11.00;;;;;;;;;;5088826;28;20016;-60
2023/08/02 01:55:48;;;;;;;11.27;10.77;;;;;;;;;;5088973;28;20039;-61
2023/08/02 01:58:13;;;;;;;12.00;11.40;;;;;;;;;;5095802;28;20023;-62
2023/08/02 02:00:38;;;;;;;11.50;11.00;;;;;;;;;;5091269;28;20049;-61
2023/08/02 02:03:04;;;;;;;11.57;11.07;;;;;;;;;;5090235;28;20550;-60
2023/08/02 02:05:29;;;;;;;12.03;11.43;;;;;;;;;;5091937;28;20035;-61
2023/08/02 02:07:54;;;;;;;11.70;11.20;;;;;;;;;;5090694;28;20297;-61
2023/08/02 02:10:20;;;;;;;11.63;11.13;;;;;;;;;;5092539;28;20024;-60
2023/08/02 02:12:45;;;;;;;12.05;11.45;;;;;;;;;;5094006;28;20020;-61
2023/08/02 02:15:10;;;;;;;11.10;10.60;;;;;;;;;;5089817;28;20023;-60
2023/08/02 02:17:35;;;;;;;11.60;11.10;;;;;;;;;;5089852;28;20043;-61
2023/08/02 02:20:01;;;;;;;11.40;10.90;;;;;;;;;;5089723;28;20070;-60
2023/08/02 02:22:26;;;;;;;12.00;11.40;;;;;;;;;;5089106;28;20019;-61
2023/08/02 02:24:51;;;;;;;11.40;10.90;;;;;;;;;;5087584;28;20027;-60
2023/08/02 02:27:17;;;;;;;11.40;10.90;;;;;;;;;;5090116;28;20115;-61
2023/08/02 02:29:42;;;;;;;11.80;11.30;;;;;;;;;;5087920;28;20020;-61
2023/08/02 02:32:07;;;;;;;11.77;11.27;;;;;;;;;;5090355;28;20020;-62
2023/08/02 02:34:33;;;;;;;12.02;11.43;;;;;;;;;;5088142;28;20982;-61
2023/08/02 02:36:58;;;;;;;12.07;11.48;;;;;;;;;;5088273;28;20510;-61
2023/08/02 02:39:24;;;;;;;11.40;10.90;;;;;;;;;;5092648;28;20024;-60
2023/08/02 02:41:49;;;;;;;11.77;11.27;;;;;;;;;;5092049;28;20505;-61
2023/08/02 02:44:14;;;;;;;12.00;11.43;;;;;;;;;;5091188;28;20069;-61
2023/08/02 02:46:40;;;;;;;11.53;11.03;;;;;;;;;;5087322;28;20079;-60
2023/08/02 02:49:05;;;;;;;11.48;10.98;;;;;;;;;;5091928;28;20272;-60
2023/08/02 02:51:30;;;;;;;11.50;11.00;;;;;;;;;;5090276;28;20109;-60
2023/08/02 02:53:56;;;;;;;12.13;11.52;;;;;;;;;;5090208;28;20076;-60
2023/08/02 02:56:21;;;;;;;11.50;11.00;;;;;;;;;;5100533;28;20115;-61
2023/08/02 02:58:46;;;;;;;11.57;11.07;;;;;;;;;;5085233;28;20045;-61
2023/08/02 03:01:11;;;;;;;11.52;11.02;;;;;;;;;;5093830;28;20299;-61
2023/08/02 03:03:37;;;;;;;11.85;11.35;;;;;;;;;;5087085;28;20024;-61
2023/08/02 03:06:02;;;;;;;11.88;11.38;;;;;;;;;;5090129;28;20478;-61
2023/08/02 03:08:27;;;;;;;11.65;11.15;;;;;;;;;;5087982;28;20035;-62
2023/08/02 03:10:52;;;;;;;11.00;10.50;;;;;;;;;;5089087;28;20013;-60
2023/08/02 03:13:18;;;;;;;11.98;11.43;;;;;;;;;;5089798;28;20399;-61
2023/08/02 03:15:43;;;;;;;11.70;11.20;;;;;;;;;;5087501;28;20028;-61
2023/08/02 03:18:08;;;;;;;11.68;11.18;;;;;;;;;;5096031;28;20074;-59
2023/08/02 03:20:34;;;;;;;11.50;11.00;;;;;;;;;;5094013;28;20015;-61
2023/08/02 03:22:59;;;;;;;11.80;11.30;;;;;;;;;;5094380;28;20276;-61
2023/08/02 03:25:24;;;;;;;11.80;11.30;;;;;;;;;;5087640;28;20775;-62
2023/08/02 03:27:50;;;;;;;11.77;11.27;;;;;;;;;;5087801;28;20038;-61
2023/08/02 03:30:15;;;;;;;11.70;11.20;;;;;;;;;;5088660;28;20051;-62
2023/08/02 03:32:40;;;;;;;11.85;11.35;;;;;;;;;;5091348;28;20103;-61
2023/08/02 03:35:06;;;;;;;11.20;10.70;;;;;;;;;;5091041;28;20755;-61
2023/08/02 03:37:31;;;;;;;11.80;11.30;;;;;;;;;;5094662;28;20066;-60
2023/08/02 03:39:56;;;;;;;12.00;11.50;;;;;;;;;;5093338;28;20059;-61
2023/08/02 03:42:22;;;;;;;11.50;11.00;;;;;;;;;;5086820;28;20029;-60
2023/08/02 03:44:47;;;;;;;11.80;11.30;;;;;;;;;;5094157;28;21985;-62
2023/08/02 03:47:12;;;;;;;11.60;11.10;;;;;;;;;;5089368;28;20022;-60
2023/08/02 03:49:38;;;;;;;12.05;11.50;;;;;;;;;;5083125;28;20032;-61
2023/08/02 03:52:04;;;;;;;11.88;11.38;;;;;;;;;;5089519;28;20061;-61
2023/08/02 03:54:29;;;;;;;12.20;11.60;;;;;;;;;;5086827;28;20062;-61
2023/08/02 03:56:54;;;;;;;11.75;11.25;;;;;;;;;;5090004;28;20020;-62
2023/08/02 03:59:19;;;;;;;11.18;10.68;;;;;;;;;;5088790;28;20089;-61
2023/08/02 04:01:45;;;;;;;12.07;11.52;;;;;;;;;;5085846;28;20512;-61
2023/08/02 04:04:10;;;;;;;12.50;11.90;;;;;;;;;;5086092;28;20032;-62
2023/08/02 04:06:35;;;;;;;12.32;11.73;;;;;;;;;;5088041;28;20027;-61
2023/08/02 04:09:02;;;;;;;11.80;11.30;;;;;;;;;;5091180;28;20681;-61
2023/08/02 04:11:27;;;;;;;12.50;11.90;;;;;;;;;;5074366;28;20074;-61
2023/08/02 04:13:53;;;;;;;11.70;11.20;;;;;;;;;;5086303;28;20107;-61
2023/08/02 04:16:18;;;;;;;11.57;11.07;;;;;;;;;;5090305;28;20132;-63
2023/08/02 04:18:43;;;;;;;12.30;11.70;;;;;;;;;;5085181;28;20356;-61
2023/08/02 04:21:09;;;;;;;12.18;11.57;;;;;;;;;;5085266;28;20036;-62
2023/08/02 04:23:34;;;;;;;12.48;11.88;;;;;;;;;;5080035;28;20051;-60
2023/08/02 04:25:59;;;;;;;12.20;11.60;;;;;;;;;;5088750;28;20024;-61
2023/08/02 04:28:24;;;;;;;11.80;11.30;;;;;;;;;;5093706;28;20345;-62
2023/08/02 04:30:50;;;;;;;12.32;11.73;;;;;;;;;;5088241;28;20275;-61
2023/08/02 04:33:15;;;;;;;12.32;11.73;;;;;;;;;;5086679;28;20119;-61
2023/08/02 04:35:41;;;;;;;11.63;11.13;;;;;;;;;;5091716;28;20024;-62
2023/08/02 04:38:06;;;;;;;12.00;11.48;;;;;;;;;;5086281;28;20557;-61
2023/08/02 04:40:31;;;;;;;12.30;11.70;;;;;;;;;;5089923;28;20032;-61
2023/08/02 04:42:57;;;;;;;12.23;11.63;;;;;;;;;;5087318;28;20029;-61
2023/08/02 04:45:22;;;;;;;11.88;11.38;;;;;;;;;;5083942;28;20033;-60
2023/08/02 04:47:47;;;;;;;12.20;11.60;;;;;;;;;;5089592;28;20020;-62
2023/08/02 04:50:12;;;;;;;12.40;11.80;;;;;;;;;;5088263;28;20023;-61
2023/08/02 04:52:38;;;;;;;12.55;11.95;;;;;;;;;;5079970;28;20031;-62
2023/08/02 04:55:05;;;;;;;12.30;11.70;;;;;;;;;;5084998;28;20036;-60
2023/08/02 04:57:30;;;;;;;11.95;11.45;;;;;;;;;;5085301;28;20027;-61
2023/08/02 04:59:56;;;;;;;12.43;11.82;;;;;;;;;;5084488;28;20038;-61
2023/08/02 05:02:25;;;;;;;12.05;11.52;;;;;;;;;;5081360;28;20108;-61
2023/08/02 05:04:51;;;;;;;11.50;11.00;;;;;;;;;;5082724;28;20035;-60
2023/08/02 05:07:16;;;;;;;11.38;10.88;;;;;;;;;;5085225;28;20091;-60
2023/08/02 05:09:43;;;;;;;12.38;11.77;;;;;;;;;;5083059;28;20012;-60
2023/08/02 05:12:08;;;;;;;11.80;11.30;;;;;;;;;;5083417;28;20031;-61
2023/08/02 05:14:33;;;;;;;11.48;10.98;;;;;;;;;;5089589;28;20131;-61
2023/08/02 05:16:59;;;;;;;11.97;11.47;;;;;;;;;;5088059;28;20081;-60
2023/08/02 05:19:24;;;;;;;12.10;11.60;;;;;;;;;;5087188;28;20277;-61
2023/08/02 05:21:49;;;;;;;11.70;11.20;;;;;;;;;;5081874;28;20081;-60
2023/08/02 05:24:14;;;;;;;11.97;11.47;;;;;;;;;;5087766;28;20464;-61
2023/08/02 05:26:40;;;;;;;11.53;11.03;;;;;;;;;;5094257;28;20281;-60
2023/08/02 05:29:05;;;;;;;11.80;11.30;;;;;;;;;;5086878;28;20616;-61
2023/08/02 05:31:30;;;;;;;11.93;11.43;;;;;;;;;;5086395;28;20489;-61
2023/08/02 05:33:56;;;;;;;11.70;11.20;;;;;;;;;;5070018;28;20259;-60
2023/08/02 05:36:21;;;;;;;11.27;10.77;;;;;;;;;;5079862;28;20022;-59
2023/08/02 05:38:46;;;;;;;11.37;10.87;;;;;;;;;;5077567;28;20321;-62
2023/08/02 05:41:12;;;;;;;11.80;11.30;;;;;;;;;;5081659;28;20272;-60
2023/08/02 05:43:41;;;;;;;11.53;11.03;;;;;;;;;;5085600;28;20280;-61
2023/08/02 05:46:07;;;;;;;11.60;11.10;;;;;;;;;;5083984;28;21101;-61
2023/08/02 05:48:32;;;;;;;11.55;11.05;;;;;;;;;;5088003;28;20012;-60
2023/08/02 05:50:57;;;;;;;11.77;11.27;;;;;;;;;;5085897;28;20113;-60
2023/08/02 05:53:23;;;;;;;11.63;11.13;;;;;;;;;;5089113;28;20724;-61
2023/08/02 05:55:48;;;;;;;11.70;11.20;;;;;;;;;;5090776;28;20303;-61
2023/08/02 05:58:13;;;;;;;11.70;11.20;;;;;;;;;;5082337;28;20028;-60
2023/08/02 06:00:39;;;;;;;11.70;11.20;;;;;;;;;;5082681;28;20300;-63
2023/08/02 06:03:04;;;;;;;11.60;11.10;;;;;;;;;;5084551;28;20115;-61
2023/08/02 06:05:29;;;;;;;11.52;11.02;;;;;;;;;;5089123;28;20020;-63
2023/08/02 06:07:55;;;;;;;11.60;11.10;;;;;;;;;;5088397;28;20065;-62
2023/08/02 06:10:20;;;;;;;11.60;11.10;;;;;;;;;;5084007;28;20094;-63
2023/08/02 06:12:45;;;;;;;11.70;11.20;;;;;;;;;;5085692;28;20133;-63
2023/08/02 06:15:10;;;;;;;11.73;11.23;;;;;;;;;;5089702;28;20597;-63
2023/08/02 06:17:36;;;;;;;11.80;11.30;;;;;;;;;;5086756;28;20271;-63
2023/08/02 06:20:01;;;;;;;11.73;11.23;;;;;;;;;;5085105;28;20817;-63
2023/08/02 06:22:26;;;;;;;12.10;11.60;;;;;;;;;;5080738;28;20036;-63
2023/08/02 06:24:52;;;;;;;11.93;11.43;;;;;;;;;;5092099;28;20414;-63
2023/08/02 06:27:17;;;;;;;12.50;11.90;;;;;;;;;;5086459;28;20058;-62
2023/08/02 06:29:42;;;;;;;11.80;11.30;;;;;;;;;;5086328;28;20296;-63
2023/08/02 06:32:08;;;;;;;12.15;11.65;;;;;;;;;;5087216;28;20285;-64
2023/08/02 06:34:33;;;;;;;12.00;11.50;;;;;;;;;;5086294;28;20021;-63
2023/08/02 06:36:58;;;;;;;12.25;11.75;;;;;;;;;;5082077;28;20300;-63
2023/08/02 06:39:24;;;;;;;12.40;11.82;;;;;;;;;;5087735;28;20553;-62
2023/08/02 06:41:49;;;;;;;12.70;12.10;;;;;;;;;;5086113;28;20019;-62
2023/08/02 06:44:14;;;;;;;12.40;11.80;;;;;;;;;;5082119;28;20359;-62
2023/08/02 06:46:40;;;;;;;12.30;11.73;;;;;;;;;;5086673;28;20027;-63
2023/08/02 06:49:05;;;;;;;12.48;11.88;;;;;;;;;;5084878;28;20016;-62
2023/08/02 06:51:31;;;;;;;12.32;11.73;;;;;;;;;;5071740;28;20016;-63
2023/08/02 06:53:57;;;;;;;12.80;12.20;;;;;;;;;;5087879;28;20027;-62
2023/08/02 06:56:23;;;;;;;12.70;12.10;;;;;;;;;;5083980;28;20028;-63
2023/08/02 06:58:48;;;;;;;12.48;11.88;;;;;;;;;;5071840;28;20398;-62
2023/08/02 07:01:15;;;;;;;13.10;12.50;;;;;;;;;;5084059;28;20094;-64
2023/08/02 07:03:40;;;;;;;12.63;12.02;;;;;;;;;;5086459;28;20253;-62
2023/08/02 07:06:11;;;;;;;11.83;11.33;;;;;;;;;;5088625;28;21153;-63
2023/08/02 07:08:37;;;;;;;12.00;11.50;;;;;;;;;;5089100;28;20028;-62
2023/08/02 07:11:04;;;;;;;12.60;12.00;;;;;;;;;;5083194;28;20032;-62
2023/08/02 07:13:29;;;;;;;11.90;11.40;;;;;;;;;;5078557;28;20022;-63
2023/08/02 07:15:54;;;;;;;12.27;11.70;;;;;;;;;;5087264;28;20040;-63
2023/08/02 07:18:20;;;;;;;12.35;11.75;;;;;;;;;;5087114;28;20050;-63
2023/08/02 07:20:45;;;;;;;12.55;11.95;;;;;;;;;;5086407;28;20024;-61
2023/08/02 07:23:10;;;;;;;12.67;12.07;;;;;;;;;;5084037;28;20442;-63
2023/08/02 07:25:36;;;;;;;12.27;11.70;;;;;;;;;;5084128;28;20285;-63
2023/08/02 07:28:01;;;;;;;12.07;11.57;;;;;;;;;;5083484;28;20300;-63
2023/08/02 07:30:27;;;;;;;12.18;11.65;;;;;;;;;;5087466;28;20547;-64
2023/08/02 07:32:52;;;;;;;12.70;12.10;;;;;;;;;;5083553;28;20426;-63
2023/08/02 07:35:17;;;;;;;12.25;11.70;;;;;;;;;;5088914;28;20027;-63
2023/08/02 07:37:42;;;;;;;12.50;11.90;;;;;;;;;;5081412;28;20024;-62
2023/08/02 07:40:09;;;;;;;12.35;11.75;;;;;;;;;;5083081;28;20075;-62
2023/08/02 07:42:34;;;;;;;12.57;11.98;;;;;;;;;;5084839;28;20057;-63
2023/08/02 07:45:00;;;;;;;12.52;11.93;;;;;;;;;;5084237;28;20471;-61
2023/08/02 07:47:25;;;;;;;12.40;11.80;;;;;;;;;;5080562;28;20024;-63
2023/08/02 07:49:51;;;;;;;12.35;11.77;;;;;;;;;;5083685;28;20019;-63
2023/08/02 07:52:16;;;;;;;12.90;12.30;;;;;;;;;;5079810;28;20499;-63
2023/08/02 07:54:42;;;;;;;12.13;11.60;;;;;;;;;;5083753;28;20029;-64
2023/08/02 07:57:08;;;;;;;12.60;12.00;;;;;;;;;;5080459;28;20276;-63
2023/08/02 07:59:33;;;;;;;11.90;11.40;;;;;;;;;;5077098;28;20020;-63
2023/08/02 08:01:58;;;;;;;12.48;11.88;;;;;;;;;;5077349;28;20704;-63
2023/08/02 08:04:23;;;;;;;12.50;11.90;;;;;;;;;;5085060;28;20040;-63
2023/08/02 08:06:49;;;;;;;12.00;11.50;;;;;;;;;;5083366;28;20269;-62
2023/08/02 08:09:15;;;;;;;12.32;11.75;;;;;;;;;;5081879;28;20264;-63
2023/08/02 08:11:40;;;;;;;12.38;11.80;;;;;;;;;;5078502;28;20104;-65
2023/08/02 08:14:05;;;;;;;12.07;11.57;;;;;;;;;;5085449;28;20479;-62
2023/08/02 08:16:31;;;;;;;12.48;11.88;;;;;;;;;;5082793;28;20383;-63
2023/08/02 08:18:56;;;;;;;12.68;12.07;;;;;;;;;;5082912;28;20051;-63
2023/08/02 08:21:21;;;;;;;12.30;11.70;;;;;;;;;;5085078;28;20059;-64
2023/08/02 08:23:46;;;;;;;12.13;11.60;;;;;;;;;;5084600;28;20677;-65
2023/08/02 08:26:12;;;;;;;12.80;12.20;;;;;;;;;;5081019;28;20034;-65
2023/08/02 08:28:37;;;;;;;12.52;11.93;;;;;;;;;;5078913;28;20260;-61
2023/08/02 08:31:03;;;;;;;12.13;11.60;;;;;;;;;;5086826;28;20035;-63
2023/08/02 08:33:29;;;;;;;11.68;11.18;;;;;;;;;;5086361;28;20051;-63
2023/08/02 08:35:54;;;;;;;12.77;12.18;;;;;;;;;;5079567;28;20055;-63
2023/08/02 08:38:20;;;;;;;12.38;11.77;;;;;;;;;;5085140;28;20427;-62
2023/08/02 08:40:49;;;;;;;11.98;11.48;;;;;;;;;;5088388;28;20024;-63
2023/08/02 08:43:14;;;;;;;12.32;11.75;;;;;;;;;;5085990;28;20035;-63
2023/08/02 08:45:39;;;;;;;12.07;11.57;;;;;;;;;;5082355;28;20019;-64
2023/08/02 08:48:05;;;;;;;11.98;11.48;;;;;;;;;;5084695;28;20024;-63
2023/08/02 08:50:32;;;;;;;12.80;12.20;;;;;;;;;;5082431;28;20150;-61
2023/08/02 08:52:59;;;;;;;12.02;11.52;;;;;;;;;;5083770;28;20078;-63
2023/08/02 08:55:28;;;;;;;12.35;11.75;;;;;;;;;;5084144;28;20028;-63
2023/08/02 08:57:53;;;;;;;11.82;11.32;;;;;;;;;;5088474;28;20031;-63
2023/08/02 09:00:18;;;;;;;12.48;11.88;;;;;;;;;;5083678;28;20052;-65
2023/08/02 09:02:44;;;;;;;12.23;11.68;;;;;;;;;;5071677;28;20869;-64
2023/08/02 09:05:09;;;;;;;12.63;12.02;;;;;;;;;;5084745;28;20532;-64
2023/08/02 09:07:35;;;;;;;12.48;11.88;;;;;;;;;;5082815;28;20552;-65
2023/08/02 09:10:00;;;;;;;12.40;11.80;;;;;;;;;;5080959;28;20024;-64
2023/08/02 09:12:27;;;;;;;12.50;11.90;;;;;;;;;;5086501;28;20024;-64
2023/08/02 09:15:04;;;;;;;13.10;12.50;;;;;;;;;;5081286;28;20024;-63
2023/08/02 09:17:46;;;;;;;12.02;11.52;;;;;;;;;;5082706;28;20032;-62
2023/08/02 09:20:11;;;;;;;12.45;11.85;;;;;;;;;;5085455;28;20074;-63
2023/08/02 09:22:37;;;;;;;11.77;11.27;;;;;;;;;;5085542;28;20028;-62
2023/08/02 09:25:06;;;;;;;12.20;11.68;;;;;;;;;;5083908;28;20137;-62
2023/08/02 09:27:32;;;;;;;12.25;11.68;;;;;;;;;;5090904;28;20024;-62
2023/08/02 09:29:57;;;;;;;11.93;11.43;;;;;;;;;;5083123;28;20028;-61
2023/08/02 09:32:23;;;;;;;11.80;11.30;;;;;;;;;;5082684;28;20059;-63
2023/08/02 09:34:58;;;;;;;12.90;12.30;;;;;;;;;;5078404;28;20360;-62
2023/08/02 09:37:36;;;;;;;12.27;11.70;;;;;;;;;;5081059;28;20048;-61
2023/08/02 09:40:04;;;;;;;12.32;11.75;;;;;;;;;;5085291;28;20109;-62
2023/08/02 09:42:30;;;;;;;12.57;11.98;;;;;;;;;;5081388;28;20109;-66
2023/08/02 09:44:57;;;;;;;13.02;12.43;;;;;;;;;;5062193;28;20044;-61
2023/08/02 09:47:22;;;;;;;12.65;12.05;;;;;;;;;;5084750;28;20024;-62
2023/08/02 09:50:03;;;;;;;12.43;11.82;;;;;;;;;;5080115;28;20130;-62
2023/08/02 09:52:28;;;;;;;12.98;12.38;;;;;;;;;;5081684;28;20018;-61
2023/08/02 09:54:54;;;;;;;12.02;11.52;;;;;;;;;;5083485;28;20024;-62
2023/08/02 09:57:28;;;;;;;12.43;11.82;;;;;;;;;;5081750;28;20111;-61
2023/08/02 09:59:55;;;;;;;12.40;11.80;;;;;;;;;;5074784;28;20047;-63
2023/08/02 10:02:25;;;;;;;12.48;11.88;;;;;;;;;;5083214;28;20031;-62
2023/08/02 10:04:55;;;;;;;12.45;11.85;;;;;;;;;;5086457;28;20103;-63
2023/08/02 10:07:20;;;;;;;12.18;11.68;;;;;;;;;;5085370;28;20035;-62
2023/08/02 10:09:47;;;;;;;12.10;11.60;;;;;;;;;;5083872;28;20145;-63
2023/08/02 10:12:16;;;;;;;12.15;11.65;;;;;;;;;;5083610;28;20024;-64
2023/08/02 10:14:41;;;;;;;12.38;11.80;;;;;;;;;;5087854;28;20051;-62
2023/08/02 10:17:08;;;;;;;12.00;11.50;;;;;;;;;;5087894;28;20055;-63
2023/08/02 10:19:34;;;;;;;12.30;11.70;;;;;;;;;;5084658;28;20095;-61
2023/08/02 10:22:00;;;;;;;12.65;12.05;;;;;;;;;;5086323;28;20166;-62
2023/08/02 10:24:26;;;;;;;12.20;11.68;;;;;;;;;;5088058;28;20550;-61
2023/08/02 10:26:53;;;;;;;12.05;11.55;;;;;;;;;;5090158;28;20494;-62
2023/08/02 10:29:19;;;;;;;12.52;11.93;;;;;;;;;;5086236;28;20028;-63
2023/08/02 10:31:44;;;;;;;12.30;11.70;;;;;;;;;;5084882;28;20657;-62
2023/08/02 10:34:36;;;;;;;12.63;12.02;;;;;;;;;;5081290;28;20161;-62
2023/08/02 10:37:01;;;;;;;12.98;12.38;;;;;;;;;;5079894;28;20055;-63
2023/08/02 10:39:45;;;;;;;11.85;11.35;;;;;;;;;;5090011;28;20468;-63
2023/08/02 10:42:10;;;;;;;11.50;11.00;;;;;;;;;;5086319;28;20078;-62
2023/08/02 10:44:36;;;;;;;12.43;11.82;;;;;;;;;;5086431;28;20491;-63
2023/08/02 10:47:20;;;;;;;12.27;11.68;;;;;;;;;;5083824;28;20027;-63
2023/08/02 10:49:45;;;;;;;;;;;;;;;;;;5087347;28;20085;-63
2023/08/02 10:52:26;;;;;;;12.50;11.90;;;;;;;;;;5079809;28;19917;-62
2023/08/02 10:55:10;;;;;;;12.70;12.10;;;;;;;;;;5085235;28;20047;-64
2023/08/02 10:57:35;;;;;;;;;;;;;;;;;;5083840;28;20086;-61
2023/08/02 11:00:13;;;;;;;12.33;11.73;;;;;;;;;;5084572;28;19920;-62
2023/08/02 11:02:48;;;;;;;12.68;12.07;;;;;;;;;;5085916;28;20065;-62
2023/08/02 11:05:35;;;;;;;12.38;11.77;;;;;;;;;;5084611;28;20062;-62
2023/08/02 11:08:00;;;;;;;12.77;12.18;;;;;;;;;;5083204;28;20034;-63
2023/08/02 11:10:26;;;;;;;12.80;12.20;;;;;;;;;;5083135;28;20024;-62
2023/08/02 11:12:52;;;;;;;12.25;11.65;;;;;;;;;;5088868;28;20478;-62
2023/08/02 11:15:18;;;;;;;12.48;11.88;;;;;;;;;;5085800;28;20027;-61
2023/08/02 11:17:43;;;;;;;12.73;12.13;;;;;;;;;;5084522;28;20451;-63
2023/08/02 11:20:09;;;;;;;13.23;12.63;;;;;;;;;;5085192;28;20024;-62
2023/08/02 11:22:38;;;;;;;12.77;12.18;;;;;;;;;;5085846;28;20028;-62
2023/08/02 11:25:06;;;;;;;12.93;12.32;;;;;;;;;;5089631;28;20020;-62
2023/08/02 11:27:33;;;;;;;13.00;12.40;;;;;;;;;;5085890;28;20019;-63
2023/08/02 11:30:04;;;;;;;13.50;12.90;;;;;;;;;;5088570;28;20066;-64
2023/08/02 11:32:32;;;;;;;11.98;11.48;;;;;;;;;;5087180;28;20016;-66
2023/08/02 11:34:57;;;;;;;12.63;12.02;;;;;;;;;;5091062;28;20042;-63
2023/08/02 11:37:23;;;;;;;13.10;12.50;;;;;;;;;;5089157;28;20475;-62
2023/08/02 11:39:52;;;;;;;12.75;12.15;;;;;;;;;;5090884;28;20027;-62
2023/08/02 11:42:17;;;;;;;12.45;11.85;;;;;;;;;;5087027;28;20066;-62
2023/08/02 11:44:43;;;;;;;12.82;12.23;;;;;;;;;;5092845;28;20486;-63
2023/08/02 11:47:09;;;;;;;12.68;12.07;;;;;;;;;;5083873;28;20107;-63
2023/08/02 11:49:46;;;;;;;13.07;12.48;;;;;;;;;;5090801;28;20103;-62
2023/08/02 11:52:12;;;;;;;13.07;12.48;;;;;;;;;;5070797;28;20028;-63
2023/08/02 11:54:37;;;;;;;13.07;12.48;;;;;;;;;;5086623;28;20088;-62
2023/08/02 11:57:02;;;;;;;13.68;12.98;;;;;;;;;;5079057;28;20032;-62
2023/08/02 11:59:28;;;;;;;13.18;12.57;;;;;;;;;;5081221;28;20111;-63
2023/08/02 12:01:53;;;;;;;13.23;12.63;;;;;;;;;;5086177;28;20403;-64
2023/08/02 12:04:18;;;;;;;13.32;12.73;;;;;;;;;;5085704;28;20043;-62
2023/08/02 12:06:48;;;;;;;13.30;12.70;;;;;;;;;;5077488;28;20131;-64
2023/08/02 12:09:14;;;;;;;12.75;12.15;;;;;;;;;;5084603;28;20016;-62
2023/08/02 12:11:39;;;;;;;12.82;12.23;;;;;;;;;;5083531;28;20035;-62
2023/08/02 12:14:06;;;;;;;12.73;12.13;;;;;;;;;;5080351;28;20016;-63
2023/08/02 12:16:41;;;;;;;12.65;12.05;;;;;;;;;;5076943;28;20151;-62
2023/08/02 12:19:07;;;;;;;12.82;12.23;;;;;;;;;;5079863;28;20456;-63
2023/08/02 12:21:33;;;;;;;12.50;11.90;;;;;;;;;;5082450;28;20445;-63
2023/08/02 12:23:58;;;;;;;12.57;11.98;;;;;;;;;;5084118;28;20035;-62
2023/08/02 12:26:27;;;;;;;13.73;13.02;;;;;;;;;;5082460;28;20020;-63
2023/08/02 12:28:53;;;;;;;12.40;11.80;;;;;;;;;;5086480;28;20023;-62
2023/08/02 12:31:18;;;;;;;11.95;11.43;;;;;;;;;;5084921;28;20013;-63
2023/08/02 12:33:43;;;;;;;12.68;12.07;;;;;;;;;;5080415;28;20093;-62
2023/08/02 12:36:09;;;;;;;12.45;11.85;;;;;;;;;;5083428;28;20028;-63
2023/08/02 12:38:34;;;;;;;12.48;11.88;;;;;;;;;;5085119;28;20028;-62
2023/08/02 12:41:01;;;;;;;12.68;12.07;;;;;;;;;;5082318;28;20375;-63
2023/08/02 12:43:27;;;;;;;13.00;12.40;;;;;;;;;;5086870;28;20058;-62
2023/08/02 12:45:53;;;;;;;13.40;12.77;;;;;;;;;;5085733;28;20064;-62
2023/08/02 12:48:18;;;;;;;12.95;12.35;;;;;;;;;;5081985;28;20047;-62
2023/08/02 12:50:43;;;;;;;12.65;12.05;;;;;;;;;;5080991;28;20055;-63
2023/08/02 12:53:09;;;;;;;12.70;12.10;;;;;;;;;;5082114;28;20082;-63
2023/08/02 12:55:34;;;;;;;12.50;11.90;;;;;;;;;;5083895;28;20025;-62
2023/08/02 12:57:59;;;;;;;12.27;11.68;;;;;;;;;;5088765;28;20029;-63
2023/08/02 13:00:25;;;;;;;12.38;11.77;;;;;;;;;;5083275;28;20141;-63
2023/08/02 13:02:50;;;;;;;12.38;11.77;;;;;;;;;;5084857;28;20039;-60
2023/08/02 13:05:16;;;;;;;12.98;12.38;;;;;;;;;;5079285;28;20020;-65
2023/08/02 13:07:41;;;;;;;12.68;12.07;;;;;;;;;;5078915;28;20028;-64
2023/08/02 13:10:06;;;;;;;12.27;11.68;;;;;;;;;;5084032;28;20413;-64
2023/08/02 13:12:33;;;;;;;12.95;12.35;;;;;;;;;;5081291;28;20540;-64
2023/08/02 13:14:59;;;;;;;12.73;12.13;;;;;;;;;;5088541;28;20027;-64
2023/08/02 13:17:24;;;;;;;12.30;11.70;;;;;;;;;;5088049;28;20470;-63
2023/08/02 13:19:50;;;;;;;12.15;11.55;;;;;;;;;;5061423;28;20028;-62
2023/08/02 13:22:15;;;;;;;12.20;11.60;;;;;;;;;;5070780;28;20026;-64
2023/08/02 13:24:40;;;;;;;12.57;11.98;;;;;;;;;;5080333;28;20491;-62
2023/08/02 13:27:06;;;;;;;11.90;11.40;;;;;;;;;;5081226;28;20471;-63
2023/08/02 13:29:31;;;;;;;12.88;12.27;;;;;;;;;;5083488;28;20022;-62
2023/08/02 13:31:57;;;;;;;13.18;12.57;;;;;;;;;;5081753;28;20089;-61
2023/08/02 13:34:22;;;;;;;12.73;12.13;;;;;;;;;;5081121;28;20803;-61
2023/08/02 13:36:49;;;;;;;12.48;11.88;;;;;;;;;;5086395;28;20039;-61
2023/08/02 13:39:14;;;;;;;12.48;11.88;;;;;;;;;;5083294;28;20024;-62
2023/08/02 13:41:40;;;;;;;13.10;12.50;;;;;;;;;;5077020;28;20032;-61
2023/08/02 13:44:05;;;;;;;12.37;11.77;;;;;;;;;;5083120;28;20028;-61
2023/08/02 13:46:30;;;;;;;12.07;11.50;;;;;;;;;;5082693;28;20302;-62
2023/08/02 13:48:58;;;;;;;12.43;11.82;;;;;;;;;;5083988;28;20640;-62
2023/08/02 13:51:23;;;;;;;12.45;11.85;;;;;;;;;;5079527;28;20563;-62
2023/08/02 13:53:48;;;;;;;12.45;11.85;;;;;;;;;;5081709;28;20099;-60
2023/08/02 13:56:14;;;;;;;11.90;11.40;;;;;;;;;;5064822;28;20023;-62
2023/08/02 13:58:39;;;;;;;12.27;11.68;;;;;;;;;;5081349;28;20036;-63
2023/08/02 14:01:04;;;;;;;12.48;11.88;;;;;;;;;;5078085;28;20066;-61
2023/08/02 14:03:30;;;;;;;11.80;11.30;;;;;;;;;;5087582;28;20110;-61
2023/08/02 14:05:55;;;;;;;12.02;11.50;;;;;;;;;;5086579;28;20073;-62
2023/08/02 14:08:20;;;;;;;12.18;11.60;;;;;;;;;;5082977;28;20127;-62
2023/08/02 14:10:46;;;;;;;12.50;11.90;;;;;;;;;;5085570;28;20024;-63
2023/08/02 14:13:11;;;;;;;12.73;12.13;;;;;;;;;;5084781;28;20024;-62